createdAt,value
2019-04-28T00:01:52.234Z,100863.05
2019-04-28T00:04:21.482Z,100865.66
2019-04-28T00:06:51.561Z,100867.23
2019-04-28T00:12:01.544Z,100867.12
2019-04-28T00:14:31.559Z,100867.90
2019-04-28T00:17:01.102Z,100871.54
2019-04-28T00:19:31.006Z,100875.13
2019-04-28T00:25:07.649Z,100872.77
2019-04-28T00:27:35.917Z,100870.97
2019-04-28T00:30:44.219Z,100871.48
2019-04-28T00:33:12.502Z,100870.12
2019-04-28T00:35:41.817Z,100871.81
2019-04-28T00:38:11.526Z,100873.64
2019-04-28T00:40:41.363Z,100881.45
2019-04-28T00:43:10.899Z,100878.59
2019-04-28T00:45:39.156Z,100882.84
2019-04-28T00:48:07.406Z,100884.28
2019-04-28T00:50:35.692Z,100881.78
2019-04-28T00:53:03.986Z,100884.65
2019-04-28T00:55:32.278Z,100896.66
2019-04-28T00:58:00.994Z,100889.42
2019-04-28T01:03:09.489Z,100893.06
2019-04-28T01:05:37.755Z,100894.04
2019-04-28T01:08:06.036Z,100888.42
2019-04-28T01:10:34.318Z,100888.03
2019-04-28T01:13:02.591Z,100886.20
2019-04-28T01:20:59.633Z,100887.38
2019-04-28T01:23:30.266Z,100892.95
2019-04-28T01:26:00.071Z,100900.37
2019-04-28T01:28:29.736Z,100899.20
2019-04-28T01:31:19.361Z,100905.06
2019-04-28T01:34:07.035Z,100907.60
2019-04-28T01:39:24.269Z,100903.55
2019-04-28T01:41:52.542Z,100910.36
2019-04-28T01:44:20.821Z,100908.97
2019-04-28T01:46:49.721Z,100910.08
2019-04-28T01:49:19.719Z,100914.90
2019-04-28T01:52:10.286Z,100912.20
2019-04-28T01:54:40.074Z,100907.96
2019-04-28T01:57:10.087Z,100914.35
2019-04-28T01:59:39.735Z,100920.12
2019-04-28T02:02:10.230Z,100909.09
2019-04-28T02:04:40.264Z,100913.20
2019-04-28T02:07:08.508Z,100913.66
2019-04-28T02:09:36.783Z,100914.77
2019-04-28T02:12:05.121Z,100929.57
2019-04-28T02:14:33.408Z,100933.97
2019-04-28T02:17:01.691Z,100928.56
2019-04-28T02:19:30.556Z,100925.20
2019-04-28T02:24:40.487Z,100928.64
2019-04-28T02:27:10.571Z,100924.47
2019-04-28T02:29:41.406Z,100927.75
2019-04-28T02:34:49.869Z,100931.56
2019-04-28T02:37:20.272Z,100925.37
2019-04-28T02:39:50.238Z,100931.95
2019-04-28T02:42:20.610Z,100935.67
2019-04-28T02:44:50.425Z,100939.19
2019-04-28T02:47:18.093Z,100930.73
2019-04-28T02:50:05.464Z,100934.83
2019-04-28T02:52:52.863Z,100935.67
2019-04-28T02:55:21.408Z,100946.80
2019-04-28T02:57:51.814Z,100948.11
2019-04-28T03:01:06.799Z,100944.34
2019-04-28T03:03:24.559Z,100950.86
2019-04-28T03:05:52.835Z,100949.73
2019-04-28T03:08:21.550Z,100957.56
2019-04-28T03:10:51.266Z,100962.52
2019-04-28T03:13:20.883Z,100964.42
2019-04-28T03:15:51.507Z,100959.99
2019-04-28T03:18:21.431Z,100963.63
2019-04-28T03:21:23.760Z,100970.86
2019-04-28T03:23:52.091Z,100964.07
2019-04-28T03:29:50.410Z,100968.66
2019-04-28T03:32:47.384Z,100974.64
2019-04-28T03:35:06.906Z,100969.23
2019-04-28T03:37:35.162Z,100972.73
2019-04-28T03:43:14.329Z,100972.95
2019-04-28T03:48:21.127Z,100980.31
2019-04-28T03:50:51.378Z,100979.14
2019-04-28T03:53:20.776Z,100977.95
2019-04-28T03:55:51.288Z,100979.70
2019-04-28T03:58:23.798Z,100981.86
2019-04-28T04:00:50.861Z,100982.47
2019-04-28T04:03:21.244Z,100976.91
2019-04-28T04:05:51.005Z,100979.52
2019-04-28T04:08:21.296Z,100975.63
2019-04-28T04:11:10.873Z,100977.50
2019-04-28T04:14:01.413Z,100978.07
2019-04-28T04:16:50.082Z,100978.81
2019-04-28T04:21:56.543Z,100983.23
2019-04-28T04:24:24.816Z,100990.26
2019-04-28T04:26:53.102Z,100989.80
2019-04-28T04:29:21.755Z,100993.80
2019-04-28T04:31:51.447Z,100993.91
2019-04-28T04:34:20.245Z,100988.38
2019-04-28T04:36:50.896Z,100997.38
2019-04-28T04:39:20.688Z,100996.13
2019-04-28T04:41:50.469Z,100999.70
2019-04-28T04:44:21.052Z,101003.70
2019-04-28T04:46:50.902Z,101005.77
2019-04-28T04:49:21.472Z,101009.34
2019-04-28T04:51:50.896Z,101000.22
2019-04-28T04:54:20.517Z,101006.28
2019-04-28T04:56:50.167Z,101001.02
2019-04-28T04:59:20.317Z,101010.86
2019-04-28T05:02:09.965Z,101009.83
2019-04-28T05:07:19.563Z,101014.19
2019-04-28T05:09:49.576Z,101023.70
2019-04-28T05:12:19.519Z,101021.64
2019-04-28T05:14:49.432Z,101028.34
2019-04-28T05:17:17.934Z,101036.28
2019-04-28T05:19:46.200Z,101036.34
2019-04-28T05:27:42.392Z,101037.95
2019-04-28T05:30:13.836Z,101044.67
2019-04-28T05:32:45.375Z,101045.78
2019-04-28T05:35:10.803Z,101046.70
2019-04-28T05:37:40.473Z,101049.08
2019-04-28T05:40:10.510Z,101049.25
2019-04-28T05:45:18.279Z,101057.30
2019-04-28T05:47:46.558Z,101058.97
2019-04-28T05:58:30.832Z,101067.85
2019-04-28T06:01:20.265Z,101057.67
2019-04-28T06:11:55.110Z,101072.91
2019-04-28T06:14:23.385Z,101075.98
2019-04-28T06:16:51.651Z,101081.50
2019-04-28T06:19:20.235Z,101086.20
2019-04-28T06:21:49.915Z,101084.69
2019-04-28T06:24:18.193Z,101087.80
2019-04-28T06:26:46.467Z,101095.39
2019-04-28T06:29:14.744Z,101094.63
2019-04-28T06:31:43.015Z,101100.55
2019-04-28T06:34:11.303Z,101100.12
2019-04-28T06:36:39.583Z,101101.45
2019-04-28T06:41:46.823Z,101106.38
2019-04-28T06:44:15.118Z,101114.95
2019-04-28T06:46:43.384Z,101114.67
2019-04-28T06:49:11.654Z,101119.98
2019-04-28T06:51:39.928Z,101124.75
2019-04-28T06:54:08.198Z,101124.21
2019-04-28T06:56:36.481Z,101125.12
2019-04-28T06:59:04.880Z,101122.69
2019-04-28T07:01:33.157Z,101123.13
2019-04-28T07:04:01.436Z,101126.42
2019-04-28T07:06:29.713Z,101130.27
2019-04-28T07:08:57.986Z,101135.98
2019-04-28T07:11:26.258Z,101150.23
2019-04-28T07:13:54.531Z,101152.76
2019-04-28T07:16:22.815Z,101160.34
2019-04-28T07:18:51.083Z,101168.78
2019-04-28T07:21:38.490Z,101156.67
2019-04-28T07:24:06.766Z,101161.47
2019-04-28T07:26:35.046Z,101160.68
2019-04-28T07:29:03.325Z,101160.73
2019-04-28T07:31:32.424Z,101169.58
2019-04-28T07:34:03.000Z,101166.23
2019-04-28T07:36:30.737Z,101164.98
2019-04-28T07:38:59.004Z,101165.11
2019-04-28T07:41:27.279Z,101173.36
2019-04-28T07:43:55.557Z,101174.27
2019-04-28T07:46:23.829Z,101178.19
2019-04-28T07:48:52.539Z,101177.05
2019-04-28T07:56:50.027Z,101177.28
2019-04-28T07:59:18.300Z,101180.72
2019-04-28T08:04:25.530Z,101196.78
2019-04-28T08:06:53.797Z,101199.59
2019-04-28T08:09:22.143Z,101212.72
2019-04-28T08:11:50.408Z,101221.55
2019-04-28T08:14:19.881Z,101233.16
2019-04-28T08:16:48.693Z,101233.42
2019-04-28T08:19:16.969Z,101239.83
2019-04-28T08:21:45.236Z,101245.55
2019-04-28T08:24:13.507Z,101240.73
2019-04-28T08:26:41.848Z,101240.69
2019-04-28T08:29:10.132Z,101248.95
2019-04-28T08:37:06.334Z,101247.65
2019-04-28T08:39:34.590Z,101252.64
2019-04-28T08:42:02.881Z,101259.16
2019-04-28T08:44:31.154Z,101268.63
2019-04-28T08:46:59.437Z,101272.88
2019-04-28T08:49:27.717Z,101280.89
2019-04-28T08:51:55.979Z,101276.98
2019-04-28T08:54:24.261Z,101289.89
2019-04-28T08:56:52.523Z,101289.94
2019-04-28T08:59:20.800Z,101288.42
2019-04-28T09:01:49.075Z,101292.73
2019-04-28T09:04:17.344Z,101286.67
2019-04-28T09:06:45.620Z,101284.56
2019-04-28T09:09:33.005Z,101285.71
2019-04-28T09:12:01.275Z,101283.27
2019-04-28T09:14:29.545Z,101292.17
2019-04-28T09:16:57.825Z,101291.42
2019-04-28T09:19:26.094Z,101294.31
2019-04-28T09:21:54.383Z,101299.00
2019-04-28T09:24:22.662Z,101294.20
2019-04-28T09:26:50.948Z,101302.97
2019-04-28T09:29:19.220Z,101305.70
2019-04-28T09:31:47.511Z,101308.83
2019-04-28T09:34:27.576Z,101320.14
2019-04-28T09:36:45.809Z,101319.45
2019-04-28T09:42:22.228Z,101328.47
2019-04-28T09:44:50.515Z,101332.83
2019-04-28T09:47:18.793Z,101327.23
2019-04-28T09:49:47.076Z,101327.91
2019-04-28T09:52:15.354Z,101335.86
2019-04-28T09:54:43.633Z,101328.02
2019-04-28T09:57:11.905Z,101333.22
2019-04-28T09:59:40.186Z,101330.92
2019-04-28T10:02:08.450Z,101333.25
2019-04-28T10:04:41.599Z,101340.89
2019-04-28T10:07:06.730Z,101333.36
2019-04-28T10:09:34.991Z,101333.69
2019-04-28T10:12:03.260Z,101332.80
2019-04-28T10:14:31.564Z,101338.67
2019-04-28T10:16:59.846Z,101341.44
2019-04-28T10:19:28.112Z,101347.30
2019-04-28T10:21:56.401Z,101349.29
2019-04-28T10:24:24.669Z,101354.82
2019-04-28T10:26:52.944Z,101353.62
2019-04-28T10:29:21.216Z,101362.13
2019-04-28T10:31:49.485Z,101352.75
2019-04-28T10:34:17.771Z,101363.17
2019-04-28T10:36:46.045Z,101366.66
2019-04-28T10:39:33.440Z,101372.35
2019-04-28T10:42:01.725Z,101376.09
2019-04-28T10:47:43.054Z,101372.80
2019-04-28T10:50:11.503Z,101370.73
2019-04-28T10:52:39.764Z,101369.13
2019-04-28T10:57:56.999Z,101381.47
2019-04-28T11:03:04.230Z,101373.53
2019-04-28T11:06:06.316Z,101379.82
2019-04-28T11:08:53.695Z,101382.14
2019-04-28T11:14:01.093Z,101389.83
2019-04-28T11:19:18.299Z,101394.52
2019-04-28T11:21:46.574Z,101399.57
2019-04-28T11:24:14.836Z,101404.22
2019-04-28T11:26:43.096Z,101405.59
2019-04-28T11:32:00.336Z,101400.20
2019-04-28T11:37:17.579Z,101394.17
2019-04-28T11:39:46.022Z,101394.05
2019-04-28T11:42:14.347Z,101402.68
2019-04-28T11:44:42.635Z,101402.68
2019-04-28T11:49:49.864Z,101407.13
2019-04-28T11:52:18.128Z,101416.94
2019-04-28T11:54:46.401Z,101411.12
2019-04-28T11:57:14.666Z,101410.73
2019-04-28T11:59:42.942Z,101412.41
2019-04-28T12:02:11.205Z,101413.88
2019-04-28T12:04:39.547Z,101403.30
2019-04-28T12:07:07.813Z,101404.88
2019-04-28T12:12:34.151Z,101403.33
2019-04-28T12:15:21.530Z,101402.84
2019-04-28T12:18:08.904Z,101409.59
2019-04-28T12:20:37.241Z,101409.42
2019-04-28T12:23:05.588Z,101416.97
2019-04-28T12:25:33.856Z,101410.73
2019-04-28T12:28:02.123Z,101406.59
2019-04-28T12:30:30.384Z,101412.20
2019-04-28T12:32:58.653Z,101412.25
2019-04-28T12:35:26.922Z,101409.53
2019-04-28T12:37:55.187Z,101411.41
2019-04-28T12:40:23.458Z,101412.33
2019-04-28T12:42:51.735Z,101415.20
2019-04-28T12:45:19.991Z,101414.69
2019-04-28T12:47:48.253Z,101418.05
2019-04-28T12:53:24.816Z,101423.05
2019-04-28T12:55:53.082Z,101420.33
2019-04-28T12:58:21.347Z,101432.64
2019-04-28T13:01:08.751Z,101427.39
2019-04-28T13:06:25.979Z,101434.44
2019-04-28T13:08:54.257Z,101435.81
2019-04-28T13:11:22.531Z,101440.77
2019-04-28T13:13:50.810Z,101447.75
2019-04-28T13:16:19.083Z,101455.55
2019-04-28T13:18:47.356Z,101459.20
2019-04-28T13:21:15.617Z,101454.50
2019-04-28T13:23:43.908Z,101471.33
2019-04-28T13:26:12.156Z,101464.61
2019-04-28T13:28:40.444Z,101470.63
2019-04-28T13:31:08.712Z,101467.69
2019-04-28T13:33:36.975Z,101470.57
2019-04-28T13:36:14.661Z,101472.77
2019-04-28T13:38:35.293Z,101479.02
2019-04-28T13:41:03.557Z,101477.72
2019-04-28T13:43:31.821Z,101475.34
2019-04-28T13:46:00.110Z,101478.75
2019-04-28T13:48:28.377Z,101481.99
2019-04-28T13:50:56.707Z,101487.37
2019-04-28T13:53:24.956Z,101483.45
2019-04-28T14:01:30.340Z,101482.88
2019-04-28T14:04:17.734Z,101481.08
2019-04-28T14:07:05.145Z,101477.44
2019-04-28T14:09:33.439Z,101486.77
2019-04-28T14:12:01.723Z,101481.32
2019-04-28T14:14:29.980Z,101486.03
2019-04-28T14:17:17.594Z,101479.11
2019-04-28T14:19:45.862Z,101479.11
2019-04-28T14:22:14.139Z,101492.85
2019-04-28T14:24:42.420Z,101489.20
2019-04-28T14:27:10.744Z,101490.72
2019-04-28T14:29:38.977Z,101495.28
2019-04-28T14:32:07.252Z,101499.78
2019-04-28T14:34:35.547Z,101501.55
2019-04-28T14:37:03.900Z,101499.66
2019-04-28T14:39:32.180Z,101503.72
2019-04-28T14:42:00.490Z,101500.86
2019-04-28T14:44:29.358Z,101503.59
2019-04-28T14:46:57.647Z,101500.86
2019-04-28T14:49:25.978Z,101508.66
2019-04-28T14:52:13.583Z,101502.49
2019-04-28T14:54:41.864Z,101502.49
2019-04-28T14:57:10.133Z,101522.72
2019-04-28T14:59:38.412Z,101521.59
2019-04-28T15:02:25.792Z,101522.98
2019-04-28T15:05:13.202Z,101529.52
2019-04-28T15:10:49.630Z,101528.63
2019-04-28T15:16:06.850Z,101529.28
2019-04-28T15:18:35.125Z,101532.57
2019-04-28T15:21:03.372Z,101530.73
2019-04-28T15:23:31.613Z,101531.23
2019-04-28T15:25:59.873Z,101531.30
2019-04-28T15:28:28.127Z,101528.78
2019-04-28T15:30:56.417Z,101534.63
2019-04-28T15:33:24.689Z,101535.34
2019-04-28T15:35:52.964Z,101536.98
2019-04-28T15:38:21.241Z,101534.98
2019-04-28T15:40:49.534Z,101538.33
2019-04-28T15:43:17.808Z,101531.87
2019-04-28T15:45:46.091Z,101533.94
2019-04-28T15:48:14.368Z,101535.39
2019-04-28T15:50:42.711Z,101531.10
2019-04-28T15:53:10.972Z,101539.80
2019-04-28T15:55:58.355Z,101541.20
2019-04-28T15:58:45.758Z,101538.34
2019-04-28T16:01:14.097Z,101546.02
2019-04-28T16:03:43.168Z,101545.36
2019-04-28T16:06:11.437Z,101549.38
2019-04-28T16:08:39.703Z,101549.19
2019-04-28T16:11:07.969Z,101552.52
2019-04-28T16:13:36.247Z,101553.58
2019-04-28T16:16:04.532Z,101550.37
2019-04-28T16:18:32.806Z,101555.93
2019-04-28T16:21:01.081Z,101558.67
2019-04-28T16:23:29.348Z,101555.67
2019-04-28T16:25:57.604Z,101551.69
2019-04-28T16:28:25.902Z,101553.13
2019-04-28T16:30:54.870Z,101552.55
2019-04-28T16:33:23.132Z,101558.75
2019-04-28T16:35:51.433Z,101558.48
2019-04-28T16:38:19.700Z,101562.05
2019-04-28T16:40:48.295Z,101561.00
2019-04-28T16:43:16.899Z,101567.03
2019-04-28T16:45:45.169Z,101561.53
2019-04-28T16:48:13.437Z,101564.41
2019-04-28T16:50:41.704Z,101566.45
2019-04-28T16:53:09.998Z,101573.20
2019-04-28T16:58:46.346Z,101570.83
2019-04-28T17:01:33.725Z,101568.86
2019-04-28T17:04:02.011Z,101580.23
2019-04-28T17:06:30.288Z,101576.25
2019-04-28T17:08:58.550Z,101580.17
2019-04-28T17:11:26.837Z,101581.69
2019-04-28T17:13:55.103Z,101582.28
2019-04-28T17:16:23.390Z,101579.44
2019-04-28T17:18:51.676Z,101586.56
2019-04-28T17:21:19.968Z,101584.44
2019-04-28T17:23:48.241Z,101588.23
2019-04-28T17:26:16.508Z,101599.35
2019-04-28T17:28:44.886Z,101589.23
2019-04-28T17:31:13.220Z,101595.38
2019-04-28T17:33:41.493Z,101596.88
2019-04-28T17:36:09.756Z,101602.30
2019-04-28T17:38:38.664Z,101594.00
2019-04-28T17:41:07.101Z,101604.25
2019-04-28T17:43:35.389Z,101604.65
2019-04-28T17:51:31.557Z,101604.05
2019-04-28T17:53:59.836Z,101613.14
2019-04-28T17:56:28.104Z,101612.35
2019-04-28T17:58:56.386Z,101609.56
2019-04-28T18:01:43.775Z,101612.97
2019-04-28T18:04:31.167Z,101613.91
2019-04-28T18:09:38.397Z,101614.18
2019-04-28T18:12:06.741Z,101618.83
2019-04-28T18:17:43.096Z,101621.35
2019-04-28T18:20:44.967Z,101625.73
2019-04-28T18:23:13.253Z,101627.04
2019-04-28T18:25:41.524Z,101628.61
2019-04-28T18:28:09.866Z,101626.84
2019-04-28T18:39:14.064Z,101640.48
2019-04-28T18:42:01.484Z,101641.28
2019-04-28T18:44:29.768Z,101649.97
2019-04-28T18:46:58.066Z,101653.31
2019-04-28T18:49:26.331Z,101651.63
2019-04-28T18:51:54.609Z,101658.61
2019-04-28T18:54:22.878Z,101655.89
2019-04-28T18:56:51.160Z,101661.13
2019-04-28T18:59:19.424Z,101669.67
2019-04-28T19:04:26.639Z,101662.98
2019-04-28T19:07:04.932Z,101662.64
2019-04-28T19:09:44.041Z,101670.83
2019-04-28T19:15:20.372Z,101670.47
2019-04-28T19:20:27.630Z,101671.41
2019-04-28T19:23:35.958Z,101664.84
2019-04-28T19:26:04.233Z,101667.67
2019-04-28T19:28:32.496Z,101669.38
2019-04-28T19:31:00.772Z,101669.66
2019-04-28T19:33:29.119Z,101673.56
2019-04-28T19:35:57.342Z,101680.23
2019-04-28T19:38:25.630Z,101673.56
2019-04-28T19:40:53.888Z,101677.83
2019-04-28T19:43:22.170Z,101674.00
2019-04-28T19:48:39.386Z,101676.00
2019-04-28T19:51:07.654Z,101668.48
2019-04-28T19:53:35.913Z,101676.67
2019-04-28T19:56:42.671Z,101681.94
2019-04-28T19:59:30.061Z,101679.42
2019-04-28T20:01:58.333Z,101681.08
2019-04-28T20:04:26.587Z,101684.09
2019-04-28T20:06:54.870Z,101692.51
2019-04-28T20:09:23.206Z,101700.50
2019-04-28T20:11:51.492Z,101701.48
2019-04-28T20:14:39.139Z,101702.97
2019-04-28T20:17:07.426Z,101699.31
2019-04-28T20:19:35.686Z,101698.45
2019-04-28T20:22:03.970Z,101703.00
2019-04-28T20:24:32.264Z,101701.78
2019-04-28T20:27:00.524Z,101704.50
2019-04-28T20:29:28.791Z,101710.24
2019-04-28T20:31:57.062Z,101703.45
2019-04-28T20:34:25.498Z,101710.94
2019-04-28T20:42:40.783Z,101719.04
2019-04-28T20:47:58.078Z,101720.55
2019-04-28T20:50:26.335Z,101721.44
2019-04-28T20:52:54.602Z,101726.48
2019-04-28T20:55:22.869Z,101727.80
2019-04-28T20:57:51.154Z,101727.38
2019-04-28T21:00:19.410Z,101719.94
2019-04-28T21:02:47.751Z,101727.88
2019-04-28T21:05:35.349Z,101738.17
2019-04-28T21:08:03.631Z,101736.25
2019-04-28T21:10:38.378Z,101745.41
2019-04-28T21:13:01.977Z,101749.69
2019-04-28T21:15:30.268Z,101750.61
2019-04-28T21:17:58.550Z,101754.19
2019-04-28T21:20:26.818Z,101752.36
2019-04-28T21:22:55.080Z,101755.27
2019-04-28T21:25:23.346Z,101758.20
2019-04-28T21:27:51.610Z,101749.45
2019-04-28T21:30:19.872Z,101756.48
2019-04-28T21:32:48.149Z,101754.70
2019-04-28T21:35:16.422Z,101756.13
2019-04-28T21:37:44.676Z,101752.29
2019-04-28T21:43:11.012Z,101760.34
2019-04-28T21:45:58.405Z,101759.66
2019-04-28T21:48:45.798Z,101763.64
2019-04-28T21:51:14.132Z,101764.16
2019-04-28T21:53:42.414Z,101762.71
2019-04-28T21:56:10.677Z,101769.22
2019-04-28T21:58:38.965Z,101764.28
2019-04-28T22:01:47.269Z,101757.56
2019-04-28T22:04:15.549Z,101763.55
2019-04-28T22:06:43.821Z,101765.14
2019-04-28T22:09:12.152Z,101766.36
2019-04-28T22:11:40.431Z,101763.80
2019-04-28T22:14:08.703Z,101764.73
2019-04-28T22:16:37.114Z,101760.95
2019-04-28T22:19:05.320Z,101760.02
2019-04-28T22:21:33.602Z,101762.43
2019-04-28T22:27:09.961Z,101764.81
2019-04-28T22:29:38.233Z,101765.89
2019-04-28T22:32:06.508Z,101761.02
2019-04-28T22:34:34.783Z,101766.63
2019-04-28T22:40:37.989Z,101764.30
2019-04-28T22:43:06.244Z,101763.52
2019-04-28T22:45:46.720Z,101763.67
2019-04-28T22:51:03.968Z,101759.65
2019-04-28T23:02:08.211Z,101760.53
2019-04-28T23:07:25.439Z,101757.78
2019-04-28T23:09:53.754Z,101762.92
2019-04-28T23:12:22.040Z,101761.76
2019-04-28T23:14:50.400Z,101768.19
2019-04-28T23:19:57.639Z,101774.23
2019-04-28T23:25:44.895Z,101776.56
2019-04-28T23:28:13.162Z,101780.25
2019-04-28T23:31:21.475Z,101784.23
2019-04-28T23:33:49.745Z,101783.70
2019-04-28T23:36:18.021Z,101788.66
2019-04-28T23:38:46.312Z,101796.09
2019-04-28T23:41:33.687Z,101798.89
2019-04-28T23:44:01.955Z,101797.31
2019-04-28T23:46:49.340Z,101794.75
2019-04-28T23:49:17.633Z,101795.13
2019-04-28T23:52:05.019Z,101799.47
2019-04-28T23:57:12.240Z,101804.78
2019-04-28T23:59:40.523Z,101794.86
